createdAt,value
2018-02-17T00:00:04.333Z,3.40
2018-02-17T00:02:34.266Z,3.50
2018-02-17T00:05:03.308Z,3.50
2018-02-17T00:07:33.175Z,3.40
2018-02-17T00:10:02.519Z,3.40
2018-02-17T00:12:31.631Z,3.40
2018-02-17T00:15:01.113Z,3.30
2018-02-17T00:17:31.158Z,3.40
2018-02-17T00:20:00.562Z,3.40
2018-02-17T00:22:30.176Z,3.40
2018-02-17T00:24:59.485Z,3.20
2018-02-17T00:27:28.987Z,3.20
2018-02-17T00:29:58.289Z,3.10
2018-02-17T00:32:27.654Z,3.20
2018-02-17T00:34:58.935Z,3.30
2018-02-17T00:37:28.253Z,3.30
2018-02-17T00:39:57.426Z,3.20
2018-02-17T00:42:26.760Z,2.90
2018-02-17T00:44:56.131Z,2.80
2018-02-17T00:47:25.799Z,2.70
2018-02-17T00:49:55.597Z,2.80
2018-02-17T00:52:24.600Z,2.70
2018-02-17T00:54:54.579Z,2.70
2018-02-17T00:57:24.018Z,2.80
2018-02-17T00:59:53.611Z,2.70
2018-02-17T01:02:22.999Z,2.80
2018-02-17T01:04:52.398Z,2.90
2018-02-17T01:07:21.435Z,2.90
2018-02-17T01:09:50.822Z,2.90
2018-02-17T01:12:20.172Z,3.00
2018-02-17T01:14:49.714Z,3.10
2018-02-17T01:17:19.723Z,3.10
2018-02-17T01:19:49.198Z,3.10
2018-02-17T01:22:18.930Z,3.10
2018-02-17T01:24:48.849Z,3.00
2018-02-17T01:27:18.440Z,2.60
2018-02-17T01:29:47.793Z,2.40
2018-02-17T01:32:17.527Z,2.20
2018-02-17T01:34:46.577Z,2.20
2018-02-17T01:37:15.866Z,2.20
2018-02-17T01:39:46.189Z,2.30
2018-02-17T01:42:16.339Z,2.40
2018-02-17T01:44:45.437Z,2.40
2018-02-17T01:47:15.025Z,2.50
2018-02-17T01:49:44.737Z,2.50
2018-02-17T01:52:14.446Z,2.40
2018-02-17T01:54:44.581Z,2.40
2018-02-17T01:57:14.459Z,2.60
2018-02-17T01:59:44.476Z,2.40
2018-02-17T02:02:15.325Z,2.50
2018-02-17T02:04:44.743Z,2.50
2018-02-17T02:07:14.330Z,2.60
2018-02-17T02:09:44.059Z,2.70
2018-02-17T02:12:13.429Z,2.70
2018-02-17T02:14:42.815Z,2.50
2018-02-17T02:17:12.202Z,2.30
2018-02-17T02:19:42.114Z,2.40
2018-02-17T02:22:11.162Z,2.40
2018-02-17T02:24:40.786Z,2.60
2018-02-17T02:27:10.686Z,2.50
2018-02-17T02:29:40.629Z,2.60
2018-02-17T02:32:10.262Z,2.60
2018-02-17T02:34:40.307Z,2.80
2018-02-17T02:38:34.063Z,2.80
2018-02-17T02:41:03.234Z,2.90
2018-02-17T02:43:32.582Z,2.80
2018-02-17T02:46:02.193Z,2.40
2018-02-17T02:48:32.600Z,2.10
2018-02-17T02:51:02.458Z,2.10
2018-02-17T02:53:32.154Z,2.00
2018-02-17T02:56:01.989Z,2.10
2018-02-17T02:58:31.813Z,2.10
2018-02-17T03:01:01.827Z,2.00
2018-02-17T03:03:30.863Z,2.00
2018-02-17T03:06:00.636Z,2.10
2018-02-17T03:08:31.083Z,2.30
2018-02-17T03:11:00.568Z,2.30
2018-02-17T03:13:29.646Z,2.30
2018-02-17T03:15:59.788Z,2.30
2018-02-17T03:18:28.768Z,2.30
2018-02-17T03:20:57.792Z,2.30
2018-02-17T03:23:27.407Z,2.30
2018-02-17T03:25:57.488Z,2.20
2018-02-17T03:28:26.914Z,2.20
2018-02-17T03:30:57.400Z,2.40
2018-02-17T03:33:26.489Z,2.40
2018-02-17T03:35:56.590Z,2.30
2018-02-17T03:38:26.276Z,2.30
2018-02-17T03:40:55.548Z,2.30
2018-02-17T03:43:24.929Z,2.20
2018-02-17T03:45:54.781Z,2.20
2018-02-17T03:48:24.463Z,2.10
2018-02-17T03:50:53.966Z,2.10
2018-02-17T03:53:23.549Z,2.10
2018-02-17T03:55:53.518Z,2.30
2018-02-17T03:58:23.224Z,2.30
2018-02-17T04:00:53.116Z,2.20
2018-02-17T04:03:22.465Z,2.30
2018-02-17T04:05:51.832Z,2.10
2018-02-17T04:08:21.224Z,1.90
2018-02-17T04:10:50.210Z,2.00
2018-02-17T04:13:19.265Z,2.20
2018-02-17T04:15:48.565Z,2.10
2018-02-17T04:18:18.207Z,2.20
2018-02-17T04:20:47.324Z,2.30
2018-02-17T04:23:16.824Z,2.30
2018-02-17T04:25:46.239Z,2.30
2018-02-17T04:28:15.833Z,2.40
2018-02-17T04:30:45.735Z,2.50
2018-02-17T04:33:15.042Z,2.30
2018-02-17T04:35:44.447Z,2.30
2018-02-17T04:38:14.946Z,2.40
2018-02-17T04:40:44.220Z,2.50
2018-02-17T04:43:13.705Z,2.50
2018-02-17T04:45:44.272Z,2.50
2018-02-17T04:48:13.457Z,2.50
2018-02-17T04:50:43.107Z,2.60
2018-02-17T04:53:13.266Z,2.50
2018-02-17T04:55:43.500Z,2.60
2018-02-17T04:58:13.665Z,2.60
2018-02-17T05:00:43.990Z,2.60
2018-02-17T05:03:13.846Z,2.40
2018-02-17T05:05:43.374Z,2.30
2018-02-17T05:08:13.674Z,2.40
2018-02-17T05:10:44.494Z,2.60
2018-02-17T05:13:13.942Z,2.60
2018-02-17T05:15:43.884Z,2.50
2018-02-17T05:18:13.640Z,2.50
2018-02-17T05:20:44.563Z,2.50
2018-02-17T05:23:15.142Z,2.50
2018-02-17T05:25:45.192Z,2.50
2018-02-17T05:28:14.321Z,2.40
2018-02-17T05:30:44.495Z,2.50
2018-02-17T05:33:13.750Z,2.50
2018-02-17T05:35:43.452Z,2.30
2018-02-17T05:38:14.422Z,2.10
2018-02-17T05:40:43.646Z,2.10
2018-02-17T05:43:13.113Z,2.10
2018-02-17T05:45:42.678Z,1.90
2018-02-17T05:48:12.171Z,1.80
2018-02-17T05:50:41.739Z,1.60
2018-02-17T05:53:11.061Z,1.60
2018-02-17T05:55:40.081Z,1.60
2018-02-17T05:58:09.418Z,1.60
2018-02-17T06:00:38.749Z,1.60
2018-02-17T06:03:07.774Z,1.60
2018-02-17T06:05:36.890Z,1.60
2018-02-17T06:08:06.162Z,1.70
2018-02-17T06:10:35.282Z,1.80
2018-02-17T06:13:04.607Z,1.90
2018-02-17T06:15:33.938Z,1.90
2018-02-17T06:18:03.275Z,1.90
2018-02-17T06:20:32.817Z,1.90
2018-02-17T06:23:02.439Z,1.80
2018-02-17T06:25:32.289Z,1.90
2018-02-17T06:28:01.622Z,1.90
2018-02-17T06:30:30.959Z,1.90
2018-02-17T06:32:59.972Z,1.90
2018-02-17T06:35:29.307Z,2.00
2018-02-17T06:37:59.740Z,2.10
2018-02-17T06:40:29.853Z,2.00
2018-02-17T06:42:58.973Z,2.00
2018-02-17T06:45:29.015Z,1.90
2018-02-17T06:47:58.021Z,1.90
2018-02-17T06:50:27.089Z,2.00
2018-02-17T06:52:57.438Z,1.90
2018-02-17T06:55:26.517Z,1.90
2018-02-17T06:57:56.317Z,1.90
2018-02-17T07:00:26.682Z,2.10
2018-02-17T07:02:56.822Z,2.20
2018-02-17T07:05:26.602Z,2.20
2018-02-17T07:07:56.240Z,2.20
2018-02-17T07:10:26.017Z,2.30
2018-02-17T07:12:55.672Z,2.20
2018-02-17T07:15:25.142Z,2.10
2018-02-17T07:17:54.474Z,1.70
2018-02-17T07:20:24.908Z,1.80
2018-02-17T07:22:54.551Z,1.70
2018-02-17T07:25:24.006Z,1.70
2018-02-17T07:27:53.940Z,1.70
2018-02-17T07:30:23.782Z,1.50
2018-02-17T07:32:53.553Z,1.70
2018-02-17T07:35:22.613Z,1.80
2018-02-17T07:37:51.973Z,2.00
2018-02-17T07:40:21.318Z,2.20
2018-02-17T07:42:50.357Z,2.10
2018-02-17T07:45:20.191Z,2.30
2018-02-17T07:47:49.587Z,2.30
2018-02-17T07:50:18.740Z,2.30
2018-02-17T07:52:48.427Z,2.20
2018-02-17T07:55:17.644Z,2.10
2018-02-17T07:57:47.120Z,2.00
2018-02-17T08:00:16.311Z,2.00
2018-02-17T08:02:45.578Z,2.10
2018-02-17T08:05:14.787Z,2.30
2018-02-17T08:07:44.633Z,2.10
2018-02-17T08:10:13.966Z,2.00
2018-02-17T08:12:43.861Z,2.00
2018-02-17T08:15:12.892Z,2.00
2018-02-17T08:17:41.896Z,1.90
2018-02-17T08:20:11.677Z,1.90
2018-02-17T08:22:40.995Z,2.00
2018-02-17T08:25:10.371Z,1.90
2018-02-17T08:27:39.582Z,2.10
2018-02-17T08:30:09.291Z,2.40
2018-02-17T08:32:38.715Z,2.70
2018-02-17T08:35:07.804Z,3.00
2018-02-17T08:37:37.686Z,3.00
2018-02-17T08:40:07.061Z,3.20
2018-02-17T08:42:36.454Z,3.30
2018-02-17T08:45:05.097Z,3.30
2018-02-17T08:47:34.433Z,3.60
2018-02-17T08:50:03.550Z,3.80
2018-02-17T08:52:32.804Z,3.90
2018-02-17T08:55:01.788Z,4.00
2018-02-17T08:57:31.178Z,3.90
2018-02-17T09:00:00.991Z,3.50
2018-02-17T09:02:30.895Z,3.80
2018-02-17T09:05:00.364Z,3.80
2018-02-17T09:07:29.537Z,3.80
2018-02-17T09:09:58.850Z,3.80
2018-02-17T09:12:28.295Z,3.10
2018-02-17T09:14:57.976Z,3.00
2018-02-17T09:17:27.164Z,3.40
2018-02-17T09:19:56.181Z,3.70
2018-02-17T09:22:25.522Z,3.50
2018-02-17T09:24:54.532Z,3.30
2018-02-17T09:27:23.892Z,3.40
2018-02-17T09:29:53.852Z,3.60
2018-02-17T09:32:23.202Z,3.40
2018-02-17T09:34:52.256Z,3.40
2018-02-17T09:37:21.913Z,3.00
2018-02-17T09:39:51.283Z,2.70
2018-02-17T09:42:20.806Z,2.70
2018-02-17T09:44:50.588Z,2.60
2018-02-17T09:47:19.741Z,2.80
2018-02-17T09:49:49.560Z,3.00
2018-02-17T09:52:18.946Z,3.00
2018-02-17T09:54:48.027Z,3.20
2018-02-17T09:57:17.118Z,3.30
2018-02-17T09:59:46.831Z,3.40
2018-02-17T10:02:15.991Z,3.20
2018-02-17T10:04:45.824Z,3.60
2018-02-17T10:07:16.278Z,3.60
2018-02-17T10:09:45.401Z,3.70
2018-02-17T10:12:14.811Z,3.90
2018-02-17T10:14:45.274Z,4.20
2018-02-17T10:17:14.807Z,4.10
2018-02-17T10:19:43.925Z,4.20
2018-02-17T10:22:13.312Z,4.40
2018-02-17T10:24:42.414Z,4.50
2018-02-17T10:27:12.068Z,4.40
2018-02-17T10:29:41.135Z,4.40
2018-02-17T10:32:10.519Z,3.90
2018-02-17T10:34:39.886Z,3.20
2018-02-17T10:37:09.810Z,3.20
2018-02-17T10:39:39.396Z,3.20
2018-02-17T10:42:08.532Z,3.10
2018-02-17T10:44:37.983Z,3.20
2018-02-17T10:47:07.462Z,3.40
2018-02-17T10:49:36.532Z,3.50
2018-02-17T10:52:05.728Z,3.20
2018-02-17T10:54:35.433Z,3.30
2018-02-17T10:57:04.820Z,3.60
2018-02-17T10:59:34.300Z,4.00
2018-02-17T11:02:03.463Z,4.00
2018-02-17T11:04:32.808Z,4.10
2018-02-17T11:07:02.233Z,4.10
2018-02-17T11:09:31.611Z,4.20
2018-02-17T11:12:01.040Z,4.40
2018-02-17T11:14:30.745Z,4.30
2018-02-17T11:16:59.832Z,4.30
2018-02-17T11:19:29.964Z,4.40
2018-02-17T11:21:59.498Z,4.40
2018-02-17T11:24:28.602Z,4.40
2018-02-17T11:26:57.671Z,4.40
2018-02-17T11:29:26.704Z,4.20
2018-02-17T11:31:55.756Z,4.10
2018-02-17T11:34:25.128Z,4.10
2018-02-17T11:36:55.213Z,3.90
2018-02-17T11:39:24.374Z,3.90
2018-02-17T11:41:53.604Z,4.10
2018-02-17T11:44:22.942Z,4.10
2018-02-17T11:46:52.074Z,4.00
2018-02-17T11:49:21.433Z,4.00
2018-02-17T11:51:50.856Z,4.00
2018-02-17T11:54:20.542Z,4.00
2018-02-17T11:56:49.929Z,3.90
2018-02-17T11:59:19.367Z,3.80
2018-02-17T12:01:49.449Z,3.80
2018-02-17T12:04:19.295Z,3.90
2018-02-17T12:06:49.096Z,3.90
2018-02-17T12:09:18.084Z,3.90
2018-02-17T12:11:47.946Z,3.80
2018-02-17T12:14:17.018Z,3.80
2018-02-17T12:16:47.122Z,3.50
2018-02-17T12:19:16.507Z,3.50
2018-02-17T12:21:45.682Z,3.60
2018-02-17T12:24:15.079Z,3.70
2018-02-17T12:26:44.422Z,3.50
2018-02-17T12:29:13.832Z,3.50
2018-02-17T12:31:43.024Z,3.40
2018-02-17T12:34:12.404Z,3.40
2018-02-17T12:36:41.915Z,3.40
2018-02-17T12:39:12.314Z,3.40
2018-02-17T12:41:41.397Z,3.40
2018-02-17T12:44:10.530Z,3.40
2018-02-17T12:46:40.013Z,3.30
2018-02-17T12:49:09.950Z,3.10
2018-02-17T12:51:39.776Z,3.10
2018-02-17T12:54:09.128Z,3.10
2018-02-17T12:56:38.198Z,3.10
2018-02-17T12:59:07.274Z,3.10
2018-02-17T13:01:37.133Z,3.30
2018-02-17T13:04:06.174Z,3.30
2018-02-17T13:06:36.620Z,3.40
2018-02-17T13:09:06.875Z,3.40
2018-02-17T13:11:36.019Z,3.40
2018-02-17T13:14:05.621Z,3.50
2018-02-17T13:16:35.164Z,3.60
2018-02-17T13:19:04.613Z,3.60
2018-02-17T13:21:34.816Z,3.60
2018-02-17T13:24:03.904Z,3.60
2018-02-17T13:26:33.506Z,3.40
2018-02-17T13:29:02.882Z,3.40
2018-02-17T13:31:33.299Z,3.30
2018-02-17T13:34:02.398Z,3.30
2018-02-17T13:36:32.541Z,3.20
2018-02-17T13:39:01.890Z,3.20
2018-02-17T13:41:30.987Z,3.20
2018-02-17T13:44:00.624Z,3.20
2018-02-17T13:46:29.855Z,3.10
2018-02-17T13:48:59.112Z,2.80
2018-02-17T13:51:28.426Z,2.70
2018-02-17T13:53:58.234Z,2.50
2018-02-17T13:56:27.993Z,2.70
2018-02-17T13:58:57.551Z,2.70
2018-02-17T14:01:26.616Z,2.80
2018-02-17T15:25:54.940Z,2.70
2018-02-17T15:28:24.379Z,2.90
2018-02-17T15:30:53.539Z,2.90
2018-02-17T15:33:22.863Z,2.60
2018-02-17T15:35:51.965Z,2.40
2018-02-17T15:38:22.527Z,2.10
2018-02-17T15:40:51.933Z,2.10
2018-02-17T15:43:21.333Z,2.10
2018-02-17T15:45:51.037Z,2.10
2018-02-17T15:48:20.554Z,2.10
2018-02-17T15:50:50.294Z,2.20
2018-02-17T15:53:19.414Z,2.20
2018-02-17T15:55:49.583Z,2.40
2018-02-17T15:58:18.945Z,2.40
2018-02-17T16:00:49.125Z,2.50
2018-02-17T16:03:18.153Z,2.50
2018-02-17T16:05:48.219Z,2.30
2018-02-17T16:08:17.632Z,2.20
2018-02-17T16:10:47.894Z,2.10
2018-02-17T16:13:16.961Z,2.10
2018-02-17T16:15:46.042Z,2.20
2018-02-17T16:18:15.150Z,2.30
2018-02-17T16:20:44.647Z,2.20
2018-02-17T16:23:14.395Z,2.30
2018-02-17T16:25:43.888Z,2.20
2018-02-17T16:28:12.986Z,2.20
2018-02-17T16:30:42.358Z,2.30
2018-02-17T16:33:11.585Z,2.30
2018-02-17T16:35:40.577Z,2.30
2018-02-17T16:38:09.570Z,2.20
2018-02-17T16:40:38.601Z,2.00
2018-02-17T16:43:07.690Z,2.00
2018-02-17T16:45:38.147Z,1.90
2018-02-17T16:48:08.050Z,1.90
2018-02-17T16:50:37.113Z,1.90
2018-02-17T16:53:06.499Z,1.90
2018-02-17T16:55:35.539Z,1.90
2018-02-17T16:58:04.957Z,1.90
2018-02-17T17:00:35.395Z,1.90
2018-02-17T17:03:04.858Z,1.90
2018-02-17T17:05:33.889Z,1.90
2018-02-17T17:08:03.286Z,1.90
2018-02-17T17:10:32.497Z,1.90
2018-02-17T17:13:01.702Z,1.90
2018-02-17T17:15:31.051Z,1.90
2018-02-17T17:18:00.392Z,2.00
2018-02-17T17:20:29.550Z,2.10
2018-02-17T17:22:58.958Z,2.00
2018-02-17T17:25:27.979Z,2.10
2018-02-17T17:27:57.419Z,2.00
2018-02-17T17:30:27.077Z,1.80
2018-02-17T17:32:56.648Z,1.80
2018-02-17T17:35:25.697Z,1.70
2018-02-17T17:37:55.204Z,1.70
2018-02-17T17:40:24.290Z,1.70
2018-02-17T17:42:53.395Z,1.70
2018-02-17T17:45:22.688Z,1.80
2018-02-17T17:47:52.018Z,1.80
2018-02-17T17:50:21.446Z,1.60
2018-02-17T17:52:51.115Z,1.50
2018-02-17T17:55:21.010Z,1.60
2018-02-17T17:57:50.338Z,1.60
2018-02-17T18:00:20.565Z,1.60
2018-02-17T18:02:49.951Z,1.60
2018-02-17T18:05:19.761Z,1.60
2018-02-17T18:07:49.446Z,1.60
2018-02-17T18:10:18.505Z,1.60
2018-02-17T18:12:47.689Z,1.60
2018-02-17T18:15:17.279Z,1.70
2018-02-17T18:17:46.799Z,1.60
2018-02-17T18:20:16.228Z,1.40
2018-02-17T18:22:45.745Z,1.40
2018-02-17T18:25:14.879Z,1.40
2018-02-17T18:27:44.218Z,1.30
2018-02-17T18:30:14.076Z,1.30
2018-02-17T18:32:43.590Z,1.40
2018-02-17T18:35:12.637Z,1.30
2018-02-17T18:37:43.497Z,1.50
2018-02-17T18:40:13.031Z,1.50
2018-02-17T18:42:42.916Z,1.50
2018-02-17T18:45:12.349Z,1.50
2018-02-17T18:47:41.562Z,1.50
2018-02-17T18:50:11.334Z,1.50
2018-02-17T18:52:40.752Z,1.50
2018-02-17T18:55:09.994Z,1.40
2018-02-17T18:57:39.423Z,1.40
2018-02-17T19:00:08.913Z,1.40
2018-02-17T19:02:38.375Z,1.40
2018-02-17T19:05:07.948Z,1.50
2018-02-17T19:07:37.542Z,1.60
2018-02-17T19:10:06.804Z,1.60
2018-02-17T19:12:36.368Z,1.60
2018-02-17T19:15:06.732Z,1.50
2018-02-17T19:17:37.338Z,1.50
2018-02-17T19:20:08.187Z,1.40
2018-02-17T19:22:37.732Z,1.40
2018-02-17T19:25:07.314Z,1.30
2018-02-17T19:27:36.875Z,1.40
2018-02-17T19:30:06.331Z,1.30
2018-02-17T19:32:36.043Z,1.30
2018-02-17T19:35:05.542Z,1.30
2018-02-17T19:37:35.511Z,1.40
2018-02-17T19:40:06.113Z,1.30
2018-02-17T19:42:35.906Z,1.40
2018-02-17T19:45:06.085Z,1.30
2018-02-17T19:47:38.981Z,1.30
2018-02-17T19:50:08.839Z,1.20
2018-02-17T19:52:39.005Z,1.20
2018-02-17T19:55:09.209Z,1.20
2018-02-17T19:57:39.186Z,1.20
2018-02-17T20:00:08.271Z,1.10
2018-02-17T20:02:37.654Z,1.10
2018-02-17T20:05:06.808Z,1.10
2018-02-17T20:07:35.918Z,1.10
2018-02-17T20:10:05.028Z,1.20
2018-02-17T20:12:35.286Z,1.30
2018-02-17T20:15:04.736Z,1.30
2018-02-17T20:17:34.451Z,1.20
2018-02-17T20:20:03.935Z,1.20
2018-02-17T20:22:33.396Z,1.20
2018-02-17T20:25:03.896Z,1.20
2018-02-17T20:27:33.006Z,1.20
2018-02-17T20:30:02.350Z,1.20
2018-02-17T20:32:32.108Z,1.30
2018-02-17T20:35:01.270Z,1.30
2018-02-17T20:37:33.007Z,1.50
2018-02-17T20:40:02.481Z,1.40
2018-02-17T20:42:31.934Z,1.50
2018-02-17T20:45:01.319Z,1.40
2018-02-17T20:47:31.216Z,1.30
2018-02-17T20:50:00.408Z,1.30
2018-02-17T20:52:29.755Z,1.40
2018-02-17T20:54:59.499Z,1.20
2018-02-17T20:57:29.595Z,1.20
2018-02-17T20:59:59.455Z,1.10
2018-02-17T21:02:28.542Z,1.10
2018-02-17T21:04:57.920Z,1.20
2018-02-17T21:07:27.754Z,1.20
2018-02-17T21:09:57.143Z,1.20
2018-02-17T21:12:26.366Z,1.20
2018-02-17T21:14:55.772Z,1.20
2018-02-17T21:17:25.372Z,1.10
2018-02-17T21:19:54.433Z,1.10
2018-02-17T21:22:24.091Z,1.20
2018-02-17T21:24:53.250Z,1.20
2018-02-17T21:27:23.046Z,1.30
2018-02-17T21:29:52.725Z,1.20
2018-02-17T21:32:22.170Z,1.10
2018-02-17T21:34:51.301Z,1.00
2018-02-17T21:37:20.681Z,1.10
2018-02-17T21:39:49.684Z,1.10
2018-02-17T21:42:18.805Z,1.10
2018-02-17T21:44:48.407Z,1.20
2018-02-17T21:47:17.563Z,1.20
2018-02-17T21:49:46.562Z,1.30
2018-02-17T21:52:16.169Z,1.20
2018-02-17T21:54:45.266Z,1.20
2018-02-17T21:57:14.345Z,1.10
2018-02-17T21:59:44.879Z,1.10
2018-02-17T22:02:13.981Z,1.10
2018-02-17T22:04:43.079Z,1.10
2018-02-17T22:07:12.788Z,1.00
2018-02-17T22:09:42.970Z,1.00
2018-02-17T22:12:12.492Z,0.90
2018-02-17T22:14:41.941Z,1.00
2018-02-17T22:17:10.973Z,1.10
2018-02-17T22:19:40.264Z,1.10
2018-02-17T22:22:10.436Z,0.90
2018-02-17T22:24:40.874Z,0.90
2018-02-17T22:27:11.475Z,1.00
2018-02-17T22:29:40.914Z,0.90
2018-02-17T22:32:11.357Z,1.00
2018-02-17T22:34:40.389Z,0.90
2018-02-17T22:37:09.397Z,1.00
2018-02-17T22:39:38.762Z,0.90
2018-02-17T22:42:07.842Z,0.90
2018-02-17T22:44:37.183Z,0.90
2018-02-17T22:47:06.627Z,0.80
2018-02-17T22:49:36.001Z,0.80
2018-02-17T22:52:05.252Z,0.80
2018-02-17T22:54:35.716Z,0.90
2018-02-17T22:57:06.043Z,0.90
2018-02-17T22:59:35.850Z,0.80
2018-02-17T23:02:05.989Z,1.00
2018-02-17T23:04:35.378Z,0.90
2018-02-17T23:07:05.603Z,0.90
2018-02-17T23:09:35.011Z,0.90
2018-02-17T23:12:05.340Z,0.80
2018-02-17T23:14:35.466Z,0.80
2018-02-17T23:17:04.835Z,0.90
2018-02-17T23:19:34.419Z,0.90
2018-02-17T23:22:04.711Z,0.80
2018-02-17T23:24:35.362Z,0.70
2018-02-17T23:27:04.656Z,0.70
2018-02-17T23:29:35.526Z,0.80
2018-02-17T23:32:04.913Z,0.80
2018-02-17T23:34:34.341Z,0.80
2018-02-17T23:37:03.749Z,0.80
2018-02-17T23:39:33.209Z,0.80
2018-02-17T23:42:04.232Z,0.70
2018-02-17T23:44:34.178Z,0.70
2018-02-17T23:47:03.950Z,0.70
2018-02-17T23:49:33.531Z,0.60
2018-02-17T23:52:03.664Z,0.70
2018-02-17T23:54:35.154Z,0.70
2018-02-17T23:57:04.655Z,0.70
2018-02-17T23:59:34.438Z,0.80
